Time;durP1;ratioP1;P1;durP2;ratioP2;P2;SDS_P1;SDS_P2;PMS_P1;PMS_P2;Temp;Humidity;BMP_temperature;BMP_pressure;BME280_temperature;BME280_humidity;BME280_pressure;Samples;Min_cycle;Max_cycle;Signal;HPM_P1;HPM_P2
2022/07/11 00:02:21;;;;;;;5.65;3.42;;;;;;;;;;5041906;28;20086;-74
2022/07/11 00:04:47;;;;;;;5.03;3.33;;;;;;;;;;5050881;28;20424;-75
2022/07/11 00:07:14;;;;;;;4.22;3.03;;;;;;;;;;5042014;28;20041;-75
2022/07/11 00:09:40;;;;;;;8.27;3.97;;;;;;;;;;5043177;28;20386;-75
2022/07/11 00:12:06;;;;;;;4.18;3.30;;;;;;;;;;5042133;28;20021;-74
2022/07/11 00:14:32;;;;;;;4.07;3.30;;;;;;;;;;5043454;28;20024;-74
2022/07/11 00:16:58;;;;;;;5.18;3.13;;;;;;;;;;5041614;28;20087;-74
2022/07/11 00:19:24;;;;;;;4.57;3.13;;;;;;;;;;5048074;28;20040;-74
2022/07/11 00:21:51;;;;;;;4.75;3.28;;;;;;;;;;5039586;28;20771;-74
2022/07/11 00:24:19;;;;;;;4.18;3.10;;;;;;;;;;5049309;28;20135;-74
2022/07/11 00:26:46;;;;;;;4.20;3.50;;;;;;;;;;5045871;28;20029;-74
2022/07/11 00:29:12;;;;;;;5.78;3.78;;;;;;;;;;5049090;28;20214;-75
2022/07/11 00:31:38;;;;;;;5.22;3.63;;;;;;;;;;5046078;28;20021;-74
2022/07/11 00:34:04;;;;;;;4.60;3.83;;;;;;;;;;5045896;28;20095;-74
2022/07/11 00:36:31;;;;;;;4.35;3.30;;;;;;;;;;5041429;28;20048;-74
2022/07/11 00:38:58;;;;;;;6.13;3.47;;;;;;;;;;5043372;28;20028;-76
2022/07/11 00:41:24;;;;;;;6.18;3.83;;;;;;;;;;5036583;28;20022;-73
2022/07/11 00:43:55;;;;;;;5.40;3.60;;;;;;;;;;5043331;28;20084;-73
2022/07/11 00:46:21;;;;;;;4.88;3.30;;;;;;;;;;5035216;28;20052;-74
2022/07/11 00:48:47;;;;;;;5.55;3.63;;;;;;;;;;5042948;28;20549;-74
2022/07/11 00:51:13;;;;;;;4.40;3.47;;;;;;;;;;5044132;28;20054;-74
2022/07/11 00:53:41;;;;;;;6.38;3.33;;;;;;;;;;5048198;28;20025;-73
2022/07/11 00:56:08;;;;;;;5.18;3.33;;;;;;;;;;5047366;28;20029;-73
2022/07/11 00:58:34;;;;;;;4.85;3.20;;;;;;;;;;5041034;28;20060;-74
2022/07/11 01:01:00;;;;;;;4.32;3.42;;;;;;;;;;5040734;28;20040;-74
2022/07/11 01:03:27;;;;;;;4.38;3.63;;;;;;;;;;5044110;28;20059;-74
2022/07/11 01:05:53;;;;;;;4.65;3.22;;;;;;;;;;5045681;28;20109;-74
2022/07/11 01:08:19;;;;;;;4.30;3.33;;;;;;;;;;5043841;28;20021;-74
2022/07/11 01:10:45;;;;;;;4.28;3.15;;;;;;;;;;5044265;28;20356;-74
2022/07/11 01:13:11;;;;;;;6.35;3.88;;;;;;;;;;5042201;28;20022;-74
2022/07/11 01:15:38;;;;;;;6.03;3.83;;;;;;;;;;5040959;28;20033;-74
2022/07/11 01:18:04;;;;;;;7.13;3.53;;;;;;;;;;5039684;28;20020;-74
2022/07/11 01:20:30;;;;;;;4.57;3.22;;;;;;;;;;5048634;28;20025;-73
2022/07/11 01:23:03;;;;;;;4.30;3.33;;;;;;;;;;5041587;28;20021;-74
2022/07/11 01:25:30;;;;;;;5.03;3.67;;;;;;;;;;5044220;28;20056;-73
2022/07/11 01:27:59;;;;;;;4.65;3.60;;;;;;;;;;5047231;28;20017;-74
2022/07/11 01:30:27;;;;;;;4.00;3.33;;;;;;;;;;5039696;28;20111;-72
2022/07/11 01:32:53;;;;;;;6.90;3.90;;;;;;;;;;5043715;28;20083;-74
2022/07/11 01:35:19;;;;;;;4.40;3.60;;;;;;;;;;5047758;28;20532;-74
2022/07/11 01:37:45;;;;;;;4.50;3.47;;;;;;;;;;5049390;28;20037;-74
2022/07/11 01:40:12;;;;;;;4.47;3.67;;;;;;;;;;5046167;28;20063;-74
2022/07/11 01:42:38;;;;;;;4.75;3.72;;;;;;;;;;5046399;28;20029;-73
2022/07/11 01:45:04;;;;;;;4.65;3.60;;;;;;;;;;5045396;28;20028;-74
2022/07/11 01:47:30;;;;;;;5.60;3.58;;;;;;;;;;5049302;28;20078;-73
2022/07/11 01:49:56;;;;;;;4.60;3.70;;;;;;;;;;5051054;28;20373;-73
2022/07/11 01:52:22;;;;;;;4.13;3.40;;;;;;;;;;5050986;28;20059;-73
2022/07/11 01:54:49;;;;;;;5.07;3.90;;;;;;;;;;5053154;28;20029;-74
2022/07/11 01:57:15;;;;;;;4.88;3.80;;;;;;;;;;5043131;28;20367;-74
2022/07/11 01:59:42;;;;;;;4.22;3.30;;;;;;;;;;5045203;28;20039;-71
2022/07/11 02:02:08;;;;;;;3.95;3.47;;;;;;;;;;5050243;28;20025;-74
2022/07/11 02:04:34;;;;;;;4.00;3.33;;;;;;;;;;5051328;28;20433;-74
2022/07/11 02:07:00;;;;;;;4.03;3.28;;;;;;;;;;5049598;28;20021;-74
2022/07/11 02:09:26;;;;;;;4.20;3.10;;;;;;;;;;5049291;28;20318;-75
2022/07/11 02:11:52;;;;;;;3.92;3.30;;;;;;;;;;5042542;28;20028;-74
2022/07/11 02:14:19;;;;;;;4.80;3.50;;;;;;;;;;5046005;28;20453;-74
2022/07/11 02:16:45;;;;;;;4.78;2.97;;;;;;;;;;5045393;28;20017;-73
2022/07/11 02:19:11;;;;;;;5.30;3.17;;;;;;;;;;5052897;28;20031;-74
2022/07/11 02:21:38;;;;;;;3.92;3.03;;;;;;;;;;5042703;28;20029;-73
2022/07/11 02:24:04;;;;;;;4.35;3.40;;;;;;;;;;5045976;28;20128;-74
2022/07/11 02:26:30;;;;;;;5.28;3.45;;;;;;;;;;5051452;28;20671;-73
2022/07/11 02:28:57;;;;;;;4.10;3.00;;;;;;;;;;5055396;28;20017;-74
2022/07/11 02:31:24;;;;;;;4.22;3.60;;;;;;;;;;5050917;28;20199;-74
2022/07/11 02:33:50;;;;;;;6.28;2.90;;;;;;;;;;5051006;28;20040;-74
2022/07/11 02:36:16;;;;;;;3.75;3.15;;;;;;;;;;5048947;28;20078;-73
2022/07/11 02:38:42;;;;;;;5.13;3.33;;;;;;;;;;5050172;28;20032;-73
2022/07/11 02:41:08;;;;;;;4.32;3.60;;;;;;;;;;5052946;28;20755;-74
2022/07/11 02:43:35;;;;;;;3.53;3.22;;;;;;;;;;5047415;28;20021;-73
2022/07/11 02:46:01;;;;;;;4.30;3.38;;;;;;;;;;5046673;28;20047;-74
2022/07/11 02:48:27;;;;;;;4.80;3.00;;;;;;;;;;5043546;28;20107;-74
2022/07/11 02:50:53;;;;;;;3.95;3.40;;;;;;;;;;5051343;28;20021;-73
2022/07/11 02:53:19;;;;;;;5.28;3.35;;;;;;;;;;5044503;28;20021;-74
2022/07/11 02:55:46;;;;;;;5.20;3.70;;;;;;;;;;5050872;28;20517;-72
2022/07/11 02:58:13;;;;;;;3.58;3.17;;;;;;;;;;5044542;28;20114;-74
2022/07/11 03:00:39;;;;;;;4.95;3.40;;;;;;;;;;5045824;28;20021;-73
2022/07/11 03:03:05;;;;;;;6.35;3.33;;;;;;;;;;5046849;28;20493;-74
2022/07/11 03:05:31;;;;;;;4.63;3.65;;;;;;;;;;5040342;28;20091;-74
2022/07/11 03:07:57;;;;;;;3.83;3.00;;;;;;;;;;5045283;28;20020;-74
2022/07/11 03:10:23;;;;;;;7.15;3.03;;;;;;;;;;5047687;28;20025;-74
2022/07/11 03:12:49;;;;;;;3.58;2.70;;;;;;;;;;5046801;28;20471;-73
2022/07/11 03:15:15;;;;;;;4.57;2.88;;;;;;;;;;5047254;28;20025;-74
2022/07/11 03:17:41;;;;;;;4.15;2.80;;;;;;;;;;5046061;28;20037;-74
2022/07/11 03:20:08;;;;;;;3.13;2.80;;;;;;;;;;5043151;28;20584;-74
2022/07/11 03:22:34;;;;;;;3.28;2.63;;;;;;;;;;5041712;28;20028;-74
2022/07/11 03:25:01;;;;;;;5.55;2.90;;;;;;;;;;5047471;28;20116;-73
2022/07/11 03:27:27;;;;;;;5.53;3.10;;;;;;;;;;5051101;28;20116;-74
2022/07/11 03:29:53;;;;;;;6.20;3.38;;;;;;;;;;5043574;28;20109;-74
2022/07/11 03:32:20;;;;;;;3.40;2.55;;;;;;;;;;5048561;28;20036;-74
2022/07/11 03:37:31;;;;;;;4.40;2.88;;;;;;;;;;5045990;28;20039;-75
2022/07/11 03:39:58;;;;;;;4.70;3.17;;;;;;;;;;5045315;28;20033;-74
2022/07/11 03:42:24;;;;;;;4.20;2.95;;;;;;;;;;5048767;28;20021;-74
2022/07/11 03:44:51;;;;;;;3.83;2.80;;;;;;;;;;5040744;28;20144;-74
2022/07/11 03:47:17;;;;;;;3.80;3.17;;;;;;;;;;5039361;28;20022;-74
2022/07/11 03:49:43;;;;;;;3.95;3.20;;;;;;;;;;5037667;28;20037;-72
2022/07/11 03:52:09;;;;;;;3.42;3.00;;;;;;;;;;5038653;28;20534;-74
2022/07/11 03:54:35;;;;;;;5.15;3.28;;;;;;;;;;5041175;28;20021;-74
2022/07/11 03:57:02;;;;;;;4.20;3.28;;;;;;;;;;5038541;28;20020;-73
2022/07/11 03:59:28;;;;;;;5.53;3.20;;;;;;;;;;5045265;28;20029;-73
2022/07/11 04:01:54;;;;;;;4.10;3.40;;;;;;;;;;5037902;28;20021;-74
2022/07/11 04:04:21;;;;;;;3.95;2.95;;;;;;;;;;5061030;28;20032;-73
2022/07/11 04:06:47;;;;;;;5.05;3.08;;;;;;;;;;5046773;28;20017;-74
2022/07/11 04:09:13;;;;;;;2.95;2.60;;;;;;;;;;5047776;28;20549;-74
2022/07/11 04:11:39;;;;;;;3.50;2.90;;;;;;;;;;5046247;28;20029;-74
2022/07/11 04:14:05;;;;;;;5.00;3.03;;;;;;;;;;5037012;28;20034;-74
2022/07/11 04:16:31;;;;;;;3.63;2.97;;;;;;;;;;5048017;28;20543;-74
2022/07/11 04:18:57;;;;;;;4.00;2.78;;;;;;;;;;5039972;28;20021;-74
2022/07/11 04:21:23;;;;;;;4.70;3.17;;;;;;;;;;5038997;28;20029;-74
2022/07/11 04:23:50;;;;;;;3.25;2.90;;;;;;;;;;5045426;28;20073;-73
2022/07/11 04:26:16;;;;;;;8.45;2.92;;;;;;;;;;5048987;28;20399;-73
2022/07/11 04:28:42;;;;;;;3.53;2.67;;;;;;;;;;5038743;28;20391;-73
2022/07/11 04:31:10;;;;;;;5.07;3.20;;;;;;;;;;5047769;28;20032;-74
2022/07/11 04:33:36;;;;;;;3.85;2.90;;;;;;;;;;5062565;28;20021;-74
2022/07/11 04:36:02;;;;;;;3.83;3.00;;;;;;;;;;5043644;28;20017;-74
2022/07/11 04:38:28;;;;;;;4.07;2.83;;;;;;;;;;5044814;28;20429;-75
2022/07/11 04:40:54;;;;;;;3.20;2.80;;;;;;;;;;5043393;28;20029;-74
2022/07/11 04:43:20;;;;;;;3.60;3.05;;;;;;;;;;5041880;28;20033;-73
2022/07/11 04:45:46;;;;;;;3.53;2.88;;;;;;;;;;5053991;28;20033;-74
2022/07/11 04:48:13;;;;;;;3.17;2.60;;;;;;;;;;5050582;28;20577;-73
2022/07/11 04:50:39;;;;;;;4.20;3.00;;;;;;;;;;5046122;28;20474;-74
2022/07/11 04:53:05;;;;;;;3.75;3.13;;;;;;;;;;5039921;28;20110;-75
2022/07/11 04:55:31;;;;;;;6.50;3.95;;;;;;;;;;5049535;28;20029;-74
2022/07/11 04:57:58;;;;;;;3.70;3.03;;;;;;;;;;5037429;28;20056;-74
2022/07/11 05:00:24;;;;;;;4.95;2.90;;;;;;;;;;5042841;28;20066;-75
2022/07/11 05:02:50;;;;;;;4.65;3.10;;;;;;;;;;5043983;28;20036;-74
2022/07/11 05:05:16;;;;;;;3.28;2.80;;;;;;;;;;5048723;28;20104;-74
2022/07/11 05:07:42;;;;;;;7.03;2.80;;;;;;;;;;5045475;28;20028;-74
2022/07/11 05:10:08;;;;;;;2.95;2.63;;;;;;;;;;5048575;28;20723;-74
2022/07/11 05:12:34;;;;;;;3.30;3.00;;;;;;;;;;5040282;28;20509;-73
2022/07/11 05:15:01;;;;;;;3.85;2.70;;;;;;;;;;5044821;28;20029;-74
2022/07/11 05:17:27;;;;;;;4.20;3.38;;;;;;;;;;5045070;28;20021;-74
2022/07/11 05:19:53;;;;;;;2.88;2.35;;;;;;;;;;5039309;28;20036;-74
2022/07/11 05:22:19;;;;;;;5.13;2.85;;;;;;;;;;5038340;28;20048;-73
2022/07/11 05:24:45;;;;;;;3.35;2.60;;;;;;;;;;5043419;28;20425;-74
2022/07/11 05:27:11;;;;;;;3.30;3.00;;;;;;;;;;5045721;28;20453;-73
2022/07/11 05:29:38;;;;;;;4.30;2.70;;;;;;;;;;5045422;28;20021;-73
2022/07/11 05:32:04;;;;;;;3.42;2.88;;;;;;;;;;5044284;28;20071;-74
2022/07/11 05:34:30;;;;;;;4.13;2.90;;;;;;;;;;5045562;28;20017;-73
2022/07/11 05:36:56;;;;;;;3.08;2.70;;;;;;;;;;5046872;28;20067;-74
2022/07/11 05:39:22;;;;;;;3.15;2.80;;;;;;;;;;5038003;28;20020;-73
2022/07/11 05:41:51;;;;;;;3.08;2.75;;;;;;;;;;5045885;28;20021;-74
2022/07/11 05:44:18;;;;;;;3.80;2.70;;;;;;;;;;5041402;28;20029;-73
2022/07/11 05:46:44;;;;;;;4.07;2.70;;;;;;;;;;5042154;28;20029;-73
2022/07/11 05:49:10;;;;;;;2.90;2.50;;;;;;;;;;5043757;28;20036;-73
2022/07/11 05:51:36;;;;;;;3.30;2.47;;;;;;;;;;5038390;28;20018;-73
2022/07/11 05:54:03;;;;;;;3.95;2.70;;;;;;;;;;5037661;28;20037;-74
2022/07/11 05:56:29;;;;;;;3.10;2.80;;;;;;;;;;5035160;28;20025;-74
2022/07/11 05:58:56;;;;;;;3.08;2.55;;;;;;;;;;5045051;28;20515;-73
2022/07/11 06:01:22;;;;;;;3.50;2.60;;;;;;;;;;5044184;28;20162;-74
2022/07/11 06:03:48;;;;;;;2.90;2.60;;;;;;;;;;5042325;28;20017;-75
2022/07/11 06:06:16;;;;;;;4.32;3.08;;;;;;;;;;5040269;28;20759;-73
2022/07/11 06:08:42;;;;;;;3.28;2.67;;;;;;;;;;5036772;28;20029;-72
2022/07/11 06:11:13;;;;;;;3.10;2.45;;;;;;;;;;5046109;28;20025;-74
2022/07/11 06:13:40;;;;;;;4.03;2.75;;;;;;;;;;5041163;28;20029;-72
2022/07/11 06:16:07;;;;;;;4.07;2.80;;;;;;;;;;5040715;28;20487;-74
2022/07/11 06:18:33;;;;;;;4.57;2.78;;;;;;;;;;5042986;28;20438;-74
2022/07/11 06:21:00;;;;;;;4.07;2.70;;;;;;;;;;5044206;28;20044;-74
2022/07/11 06:23:26;;;;;;;5.10;2.88;;;;;;;;;;5043527;28;20421;-75
2022/07/11 06:25:52;;;;;;;3.88;2.67;;;;;;;;;;5039503;28;20029;-74
2022/07/11 06:28:18;;;;;;;7.43;2.65;;;;;;;;;;5044140;28;20029;-74
2022/07/11 06:30:44;;;;;;;3.88;2.58;;;;;;;;;;5040532;28;20020;-73
2022/07/11 06:33:10;;;;;;;6.28;2.63;;;;;;;;;;5044564;28;20447;-74
2022/07/11 06:35:36;;;;;;;6.53;4.32;;;;;;;;;;5044711;28;20054;-73
2022/07/11 06:38:02;;;;;;;5.30;2.90;;;;;;;;;;5043982;28;20024;-74
2022/07/11 06:40:28;;;;;;;5.10;2.60;;;;;;;;;;5047912;28;20071;-73
2022/07/11 06:42:55;;;;;;;8.48;3.22;;;;;;;;;;5040159;28;20028;-74
2022/07/11 06:45:21;;;;;;;4.70;2.63;;;;;;;;;;5042213;28;20029;-74
2022/07/11 06:47:47;;;;;;;6.68;2.53;;;;;;;;;;5047896;28;20108;-74
2022/07/11 06:50:13;;;;;;;6.70;3.00;;;;;;;;;;5042092;28;20067;-74
2022/07/11 06:52:39;;;;;;;7.30;2.30;;;;;;;;;;5047675;28;20091;-74
2022/07/11 06:55:05;;;;;;;3.92;2.53;;;;;;;;;;5045677;28;20077;-74
2022/07/11 06:57:31;;;;;;;3.60;2.70;;;;;;;;;;5058656;28;20489;-74
2022/07/11 06:59:57;;;;;;;4.13;2.70;;;;;;;;;;5043934;28;20020;-74
2022/07/11 07:02:27;;;;;;;3.63;2.53;;;;;;;;;;5041305;28;20029;-74
2022/07/11 07:04:54;;;;;;;3.95;2.50;;;;;;;;;;5044862;28;20104;-75
2022/07/11 07:07:20;;;;;;;4.95;2.40;;;;;;;;;;5048260;28;20459;-74
2022/07/11 07:09:52;;;;;;;2.85;2.25;;;;;;;;;;5047902;28;20124;-74
2022/07/11 07:12:19;;;;;;;2.92;2.63;;;;;;;;;;5041962;28;20151;-75
2022/07/11 07:14:45;;;;;;;2.90;2.30;;;;;;;;;;5046238;28;20033;-76
2022/07/11 07:17:11;;;;;;;5.45;2.50;;;;;;;;;;5049879;28;20234;-76
2022/07/11 07:19:38;;;;;;;3.13;2.40;;;;;;;;;;5047587;28;20039;-75
2022/07/11 07:22:05;;;;;;;7.32;2.65;;;;;;;;;;5044671;28;20021;-74
2022/07/11 07:24:31;;;;;;;3.08;2.50;;;;;;;;;;5049098;28;20235;-74
2022/07/11 07:26:58;;;;;;;3.33;2.80;;;;;;;;;;5050409;28;20080;-74
2022/07/11 07:29:26;;;;;;;3.22;2.67;;;;;;;;;;5048714;28;20025;-74
2022/07/11 07:31:52;;;;;;;3.38;2.58;;;;;;;;;;5041950;28;20035;-74
2022/07/11 07:34:19;;;;;;;4.28;2.50;;;;;;;;;;5046554;28;20051;-75
2022/07/11 07:36:45;;;;;;;4.95;2.70;;;;;;;;;;5041519;28;20087;-75
2022/07/11 07:39:11;;;;;;;5.63;2.72;;;;;;;;;;5048417;28;20116;-74
2022/07/11 07:41:37;;;;;;;2.90;2.60;;;;;;;;;;5045869;28;20119;-74
2022/07/11 07:44:03;;;;;;;2.75;2.33;;;;;;;;;;5042014;28;20037;-74
2022/07/11 07:46:30;;;;;;;4.15;2.58;;;;;;;;;;5048588;28;20032;-75
2022/07/11 07:48:56;;;;;;;7.53;2.70;;;;;;;;;;5037996;28;20035;-75
2022/07/11 07:51:22;;;;;;;3.17;2.60;;;;;;;;;;5045184;28;20028;-74
2022/07/11 07:53:48;;;;;;;6.78;2.70;;;;;;;;;;5041369;28;20036;-74
2022/07/11 07:56:14;;;;;;;8.35;3.15;;;;;;;;;;5045435;28;20021;-74
2022/07/11 07:58:40;;;;;;;4.00;2.83;;;;;;;;;;5045786;28;20032;-75
2022/07/11 08:03:52;;;;;;;4.78;2.25;;;;;;;;;;5044451;28;20044;-73
2022/07/11 08:06:18;;;;;;;5.95;4.00;;;;;;;;;;5044788;28;20029;-74
2022/07/11 08:08:44;;;;;;;6.40;2.70;;;;;;;;;;5034977;28;20025;-75
2022/07/11 08:11:10;;;;;;;2.78;2.20;;;;;;;;;;5044195;28;20025;-74
2022/07/11 08:13:37;;;;;;;2.63;2.40;;;;;;;;;;5036554;28;20025;-75
2022/07/11 08:16:04;;;;;;;3.47;2.40;;;;;;;;;;5043711;28;20028;-73
2022/07/11 08:18:30;;;;;;;3.53;2.25;;;;;;;;;;5044576;28;20028;-74
2022/07/11 08:20:56;;;;;;;3.00;2.28;;;;;;;;;;5034327;28;20116;-73
2022/07/11 08:23:22;;;;;;;3.22;2.45;;;;;;;;;;5043656;28;20045;-75
2022/07/11 08:25:48;;;;;;;4.10;2.30;;;;;;;;;;5044626;28;20104;-74
2022/07/11 08:28:14;;;;;;;4.38;2.50;;;;;;;;;;5043591;28;20537;-73
2022/07/11 08:30:40;;;;;;;2.72;2.20;;;;;;;;;;5039791;28;20135;-74
2022/07/11 08:33:06;;;;;;;4.57;2.58;;;;;;;;;;5039464;28;20506;-74
2022/07/11 08:35:33;;;;;;;3.53;3.03;;;;;;;;;;5045233;28;20029;-74
2022/07/11 08:37:59;;;;;;;2.65;2.42;;;;;;;;;;5044102;28;20029;-74
2022/07/11 08:40:25;;;;;;;3.90;2.60;;;;;;;;;;5042705;28;20565;-74
2022/07/11 08:42:51;;;;;;;9.73;3.17;;;;;;;;;;5041253;28;20041;-74
2022/07/11 08:45:17;;;;;;;6.63;2.50;;;;;;;;;;5044119;28;20043;-74
2022/07/11 08:47:44;;;;;;;2.80;2.60;;;;;;;;;;5041978;28;20024;-74
2022/07/11 08:50:12;;;;;;;3.05;2.22;;;;;;;;;;5035684;28;20028;-76
2022/07/11 08:52:38;;;;;;;2.63;2.08;;;;;;;;;;5045143;28;20036;-75
2022/07/11 08:55:07;;;;;;;2.95;2.58;;;;;;;;;;5037002;28;20029;-75
2022/07/11 08:57:35;;;;;;;4.28;2.47;;;;;;;;;;5042928;28;20025;-75
2022/07/11 09:00:01;;;;;;;2.60;2.40;;;;;;;;;;5042918;28;20029;-74
2022/07/11 09:02:28;;;;;;;4.30;2.40;;;;;;;;;;5036560;28;20485;-75
2022/07/11 09:04:54;;;;;;;3.65;2.60;;;;;;;;;;5043148;28;20029;-73
2022/07/11 09:07:21;;;;;;;2.88;2.42;;;;;;;;;;5041030;28;20024;-74
2022/07/11 09:09:47;;;;;;;3.72;2.78;;;;;;;;;;5041901;28;20017;-75
2022/07/11 09:12:15;;;;;;;6.07;2.83;;;;;;;;;;5046229;28;20475;-75
2022/07/11 09:14:46;;;;;;;3.00;2.50;;;;;;;;;;5039496;28;20467;-74
2022/07/11 09:17:12;;;;;;;6.57;2.55;;;;;;;;;;5039383;28;21319;-74
2022/07/11 09:19:39;;;;;;;3.47;2.28;;;;;;;;;;5043777;28;20025;-74
2022/07/11 09:25:21;;;;;;;3.33;2.70;;;;;;;;;;5040706;28;20118;-74
2022/07/11 09:27:51;;;;;;;3.58;2.70;;;;;;;;;;5038104;28;20513;-75
2022/07/11 09:30:18;;;;;;;4.03;2.45;;;;;;;;;;5037024;28;20024;-74
2022/07/11 09:33:00;;;;;;;3.58;2.30;;;;;;;;;;5044096;28;20047;-74
2022/07/11 09:35:31;;;;;;;2.78;2.30;;;;;;;;;;5040522;28;20025;-72
2022/07/11 09:37:57;;;;;;;3.05;2.30;;;;;;;;;;5039233;28;20028;-76
2022/07/11 09:40:25;;;;;;;6.07;2.60;;;;;;;;;;5037769;28;20047;-75
2022/07/11 09:42:52;;;;;;;2.45;2.25;;;;;;;;;;5039228;28;20049;-75
2022/07/11 09:45:19;;;;;;;3.40;2.40;;;;;;;;;;5032088;28;20034;-75
2022/07/11 09:47:46;;;;;;;4.22;2.85;;;;;;;;;;5042194;28;20059;-74
2022/07/11 09:50:15;;;;;;;2.70;2.50;;;;;;;;;;5043247;28;20051;-75
2022/07/11 09:52:43;;;;;;;3.30;2.10;;;;;;;;;;5039001;28;20390;-74
2022/07/11 09:55:09;;;;;;;5.95;2.55;;;;;;;;;;5047297;28;20072;-73
2022/07/11 09:57:36;;;;;;;4.32;2.40;;;;;;;;;;5045126;28;20462;-74
2022/07/11 10:00:11;;;;;;;2.38;2.17;;;;;;;;;;5042424;28;20033;-74
2022/07/11 10:02:38;;;;;;;4.68;2.20;;;;;;;;;;5042523;28;20025;-75
2022/07/11 10:05:05;;;;;;;2.22;2.00;;;;;;;;;;5046736;28;20025;-75
2022/07/11 10:07:31;;;;;;;2.50;2.30;;;;;;;;;;5047294;28;20013;-74
2022/07/11 10:09:58;;;;;;;3.80;2.28;;;;;;;;;;5044160;28;20059;-74
2022/07/11 10:12:26;;;;;;;3.40;2.22;;;;;;;;;;5048572;28;20147;-74
2022/07/11 10:14:56;;;;;;;4.72;2.50;;;;;;;;;;5050819;28;20071;-76
2022/07/11 10:17:23;;;;;;;4.78;2.40;;;;;;;;;;5048849;28;20115;-73
2022/07/11 10:20:06;;;;;;;2.75;2.30;;;;;;;;;;5044646;28;20063;-76
2022/07/11 10:22:34;;;;;;;3.78;2.50;;;;;;;;;;5047075;28;20041;-77
2022/07/11 10:25:14;;;;;;;3.75;2.40;;;;;;;;;;5048803;28;20049;-73
2022/07/11 10:28:00;;;;;;;2.25;2.03;;;;;;;;;;5042121;28;20049;-77
2022/07/11 10:30:46;;;;;;;2.53;2.33;;;;;;;;;;5039950;28;20018;-75
2022/07/11 10:33:13;;;;;;;3.15;2.20;;;;;;;;;;5041847;28;20565;-75
2022/07/11 10:35:46;;;;;;;3.05;2.17;;;;;;;;;;5041424;28;20033;-76
2022/07/11 10:38:13;;;;;;;3.00;2.30;;;;;;;;;;5047419;28;20029;-74
2022/07/11 10:40:47;;;;;;;3.00;2.15;;;;;;;;;;5047410;28;20138;-75
2022/07/11 10:43:14;;;;;;;2.40;2.20;;;;;;;;;;5046061;28;20026;-74
2022/07/11 10:45:50;;;;;;;3.13;2.20;;;;;;;;;;5050758;28;20028;-76
2022/07/11 10:48:17;;;;;;;2.75;2.30;;;;;;;;;;5041341;28;20083;-75
2022/07/11 10:50:44;;;;;;;2.78;2.20;;;;;;;;;;5042771;28;20026;-76
2022/07/11 10:53:12;;;;;;;2.85;2.42;;;;;;;;;;5050406;28;20107;-76
2022/07/11 10:55:42;;;;;;;2.30;2.10;;;;;;;;;;5046423;28;20045;-73
2022/07/11 10:58:14;;;;;;;4.43;2.38;;;;;;;;;;5042990;28;20033;-74
2022/07/11 11:00:41;;;;;;;2.60;2.40;;;;;;;;;;5045759;28;20036;-75
2022/07/11 11:03:08;;;;;;;2.40;2.20;;;;;;;;;;5037162;28;20036;-74
2022/07/11 11:05:43;;;;;;;2.50;2.30;;;;;;;;;;5050305;28;20025;-75
2022/07/11 11:08:28;;;;;;;3.88;2.47;;;;;;;;;;5047993;28;20028;-74
2022/07/11 11:10:54;;;;;;;2.53;2.33;;;;;;;;;;5045092;28;20021;-75
2022/07/11 11:13:20;;;;;;;2.53;2.33;;;;;;;;;;5044589;28;20194;-76
2022/07/11 11:15:46;;;;;;;2.80;2.35;;;;;;;;;;5045241;28;20025;-75
2022/07/11 11:18:25;;;;;;;3.90;2.60;;;;;;;;;;5042785;28;20021;-75
2022/07/11 11:21:03;;;;;;;2.58;2.38;;;;;;;;;;5044939;28;20021;-74
2022/07/11 11:23:36;;;;;;;3.47;2.30;;;;;;;;;;5043366;28;20429;-74
2022/07/11 11:26:11;;;;;;;6.05;2.85;;;;;;;;;;5043086;28;20063;-75
2022/07/11 11:28:38;;;;;;;4.07;2.83;;;;;;;;;;5045680;28;20109;-74
2022/07/11 11:31:05;;;;;;;8.95;3.80;;;;;;;;;;5042944;28;20033;-75
2022/07/11 11:33:35;;;;;;;4.43;2.70;;;;;;;;;;5046783;28;20765;-75
2022/07/11 11:36:10;;;;;;;2.75;2.33;;;;;;;;;;5033501;28;20029;-75
2022/07/11 11:38:38;;;;;;;3.38;2.40;;;;;;;;;;5049449;28;20074;-75
2022/07/11 11:41:08;;;;;;;4.93;3.47;;;;;;;;;;5041439;28;20029;-75
2022/07/11 11:43:40;;;;;;;2.65;2.30;;;;;;;;;;5049886;28;20108;-76
2022/07/11 11:46:06;;;;;;;2.60;2.40;;;;;;;;;;5049995;28;20021;-75
2022/07/11 11:48:34;;;;;;;3.10;2.70;;;;;;;;;;5045758;28;20086;-75
2022/07/11 11:51:10;;;;;;;2.30;2.10;;;;;;;;;;5052216;28;20021;-74
2022/07/11 11:53:37;;;;;;;3.53;2.72;;;;;;;;;;5045579;28;20606;-75
2022/07/11 11:56:21;;;;;;;3.00;2.47;;;;;;;;;;5054586;28;20470;-74
2022/07/11 11:58:48;;;;;;;3.05;2.45;;;;;;;;;;5048269;28;20036;-75
2022/07/11 12:01:15;;;;;;;2.53;2.10;;;;;;;;;;5047888;28;20070;-75
2022/07/11 12:03:48;;;;;;;3.78;2.20;;;;;;;;;;5049835;28;20519;-75
2022/07/11 12:06:20;;;;;;;2.42;2.10;;;;;;;;;;5052265;28;20021;-75
2022/07/11 12:08:47;;;;;;;5.97;2.60;;;;;;;;;;5042555;28;20694;-74
2022/07/11 12:11:14;;;;;;;3.72;2.80;;;;;;;;;;5049386;28;20082;-77
2022/07/11 12:13:43;;;;;;;2.90;2.08;;;;;;;;;;5051684;28;20827;-76
2022/07/11 12:19:01;;;;;;;2.20;2.00;;;;;;;;;;5049704;28;20087;-77
2022/07/11 12:21:29;;;;;;;2.65;2.30;;;;;;;;;;5048165;28;20075;-77
2022/07/11 12:24:02;;;;;;;3.45;2.20;;;;;;;;;;5062572;28;20560;-76
2022/07/11 12:26:32;;;;;;;2.40;2.20;;;;;;;;;;5046053;28;20048;-75
2022/07/11 12:29:11;;;;;;;4.07;2.20;;;;;;;;;;5048385;28;20060;-76
2022/07/11 12:31:42;;;;;;;2.88;2.60;;;;;;;;;;5041692;28;20025;-75
2022/07/11 12:34:08;;;;;;;2.80;2.25;;;;;;;;;;5045941;28;20362;-77
2022/07/11 12:36:34;;;;;;;2.80;2.60;;;;;;;;;;5059539;28;20106;-76
2022/07/11 12:39:00;;;;;;;2.88;2.10;;;;;;;;;;5043844;28;20092;-77
2022/07/11 12:41:30;;;;;;;2.72;2.30;;;;;;;;;;5050592;28;20029;-74
2022/07/11 12:46:42;;;;;;;4.15;2.30;;;;;;;;;;5034636;28;20064;-76
2022/07/11 12:49:09;;;;;;;2.72;2.35;;;;;;;;;;5041738;28;20029;-75
2022/07/11 12:51:40;;;;;;;2.55;2.17;;;;;;;;;;5042154;28;20032;-75
2022/07/11 12:54:09;;;;;;;2.65;2.20;;;;;;;;;;5039324;28;20028;-76
2022/07/11 12:56:36;;;;;;;3.28;2.85;;;;;;;;;;5045606;28;20033;-75
2022/07/11 12:59:02;;;;;;;3.25;2.20;;;;;;;;;;5043156;28;20048;-75
2022/07/11 13:01:29;;;;;;;3.42;2.50;;;;;;;;;;5035778;28;20033;-75
2022/07/11 13:03:56;;;;;;;2.78;2.20;;;;;;;;;;5039683;28;20024;-75
2022/07/11 13:08:42;;;;;;;2.75;2.10;;;;;;;;;;5042977;28;20498;-76
2022/07/11 13:09:08;;;;;;;2.72;2.50;;;;;;;;;;5038131;28;20033;-76
2022/07/11 13:11:35;;;;;;;2.72;2.47;;;;;;;;;;5031076;28;20854;-76
2022/07/11 13:14:01;;;;;;;2.35;2.08;;;;;;;;;;5045861;28;20029;-74
2022/07/11 13:16:28;;;;;;;2.92;2.50;;;;;;;;;;5039498;28;20025;-75
2022/07/11 13:18:58;;;;;;;3.67;2.40;;;;;;;;;;5045560;28;20020;-76
2022/07/11 13:21:26;;;;;;;4.40;2.40;;;;;;;;;;5038506;28;20040;-76
2022/07/11 13:23:53;;;;;;;3.03;2.28;;;;;;;;;;5041465;28;20055;-77
2022/07/11 13:26:22;;;;;;;2.60;2.00;;;;;;;;;;5035976;28;20053;-76
2022/07/11 13:28:48;;;;;;;4.95;2.50;;;;;;;;;;5046740;28;20540;-75
2022/07/11 13:31:14;;;;;;;3.95;2.33;;;;;;;;;;5039802;28;20038;-75
2022/07/11 13:33:46;;;;;;;3.17;2.40;;;;;;;;;;5039613;28;20666;-77
2022/07/11 13:36:12;;;;;;;4.45;2.25;;;;;;;;;;5036652;28;20052;-77
2022/07/11 13:38:39;;;;;;;2.20;2.00;;;;;;;;;;5047770;28;20375;-77
2022/07/11 13:41:05;;;;;;;2.60;2.40;;;;;;;;;;5051620;28;20475;-77
2022/07/11 13:43:32;;;;;;;3.58;2.15;;;;;;;;;;5039887;28;20609;-77
2022/07/11 13:45:58;;;;;;;3.47;2.28;;;;;;;;;;5043208;28;20028;-76
2022/07/11 13:48:24;;;;;;;4.35;2.47;;;;;;;;;;5044679;28;20052;-76
2022/07/11 13:50:50;;;;;;;3.90;2.40;;;;;;;;;;5039939;28;20032;-76
2022/07/11 13:53:24;;;;;;;2.10;1.90;;;;;;;;;;5046784;28;20642;-77
2022/07/11 13:55:50;;;;;;;2.85;2.20;;;;;;;;;;5040694;28;20087;-75
2022/07/11 13:58:25;;;;;;;2.40;2.05;;;;;;;;;;5038543;28;20047;-76
2022/07/11 14:00:52;;;;;;;3.95;2.15;;;;;;;;;;5058956;28;20029;-77
2022/07/11 14:03:18;;;;;;;2.15;1.95;;;;;;;;;;5043919;28;20036;-79
2022/07/11 14:05:55;;;;;;;2.22;2.00;;;;;;;;;;5054124;28;20028;-76
2022/07/11 14:08:21;;;;;;;2.03;1.80;;;;;;;;;;5046474;28;20024;-76
2022/07/11 14:10:52;;;;;;;7.18;2.03;;;;;;;;;;5047194;28;20020;-75
2022/07/11 14:13:19;;;;;;;2.63;1.90;;;;;;;;;;5042152;28;20037;-75
2022/07/11 14:16:06;;;;;;;2.22;2.03;;;;;;;;;;5040042;28;20052;-75
2022/07/11 14:18:32;;;;;;;2.95;2.20;;;;;;;;;;5039849;28;20033;-76
2022/07/11 14:21:01;;;;;;;3.65;2.00;;;;;;;;;;5041949;28;20029;-76
2022/07/11 14:23:27;;;;;;;2.00;1.80;;;;;;;;;;5040532;28;20426;-78
2022/07/11 14:25:53;;;;;;;2.17;1.90;;;;;;;;;;5042521;28;20568;-75
2022/07/11 14:28:26;;;;;;;2.92;1.98;;;;;;;;;;5036581;28;20070;-76
2022/07/11 14:30:53;;;;;;;2.67;2.08;;;;;;;;;;5043708;28;20029;-76
2022/07/11 14:33:25;;;;;;;2.95;1.90;;;;;;;;;;5047705;28;20027;-78
2022/07/11 14:35:51;;;;;;;2.95;2.10;;;;;;;;;;5033903;28;20021;-78
2022/07/11 14:38:18;;;;;;;2.40;1.92;;;;;;;;;;5051373;28;20033;-76
2022/07/11 14:40:44;;;;;;;2.40;2.00;;;;;;;;;;5037187;28;20057;-77
2022/07/11 14:43:10;;;;;;;3.10;2.17;;;;;;;;;;5046308;28;20091;-76
2022/07/11 14:45:36;;;;;;;3.45;2.10;;;;;;;;;;5041254;28;20045;-76
2022/07/11 14:48:10;;;;;;;3.42;2.30;;;;;;;;;;5047948;28;20055;-76
2022/07/11 14:50:36;;;;;;;2.88;2.15;;;;;;;;;;5036244;28;20475;-74
2022/07/11 14:53:03;;;;;;;2.60;2.00;;;;;;;;;;5045221;28;20036;-75
2022/07/11 14:55:29;;;;;;;2.92;2.10;;;;;;;;;;5042580;28;20029;-76
2022/07/11 14:57:55;;;;;;;2.80;2.30;;;;;;;;;;5046287;28;20077;-78
2022/07/11 15:00:23;;;;;;;4.13;2.22;;;;;;;;;;5033474;28;20037;-76